sensor_id;sensor_type;location;lat;lon;timestamp;pressure;altitude;pressure_sealevel;temperature;humidity
43683;BME280;29285;52.128;21.060;2023-11-19T00:01:20;100984.48;;;2.72;100.00
43683;BME280;29285;52.128;21.060;2023-11-19T00:06:21;100985.35;;;2.66;100.00
43683;BME280;29285;52.128;21.060;2023-11-19T00:11:22;100976.55;;;2.64;100.00
43683;BME280;29285;52.128;21.060;2023-11-19T00:16:22;100981.09;;;2.67;100.00
43683;BME280;29285;52.128;21.060;2023-11-19T00:21:23;100975.48;;;2.69;100.00
43683;BME280;29285;52.128;21.060;2023-11-19T00:26:24;100975.80;;;2.68;100.00
43683;BME280;29285;52.128;21.060;2023-11-19T00:31:25;100975.35;;;2.64;100.00
43683;BME280;29285;52.128;21.060;2023-11-19T00:36:29;100969.45;;;2.61;100.00
43683;BME280;29285;52.128;21.060;2023-11-19T00:41:30;100962.66;;;2.63;100.00
43683;BME280;29285;52.128;21.060;2023-11-19T00:46:31;100948.83;;;2.65;100.00
43683;BME280;29285;52.128;21.060;2023-11-19T00:51:33;100943.48;;;2.64;100.00
43683;BME280;29285;52.128;21.060;2023-11-19T00:56:34;100942.45;;;2.64;100.00
43683;BME280;29285;52.128;21.060;2023-11-19T01:01:36;100935.48;;;2.66;100.00
43683;BME280;29285;52.128;21.060;2023-11-19T01:06:37;100925.92;;;2.68;100.00
43683;BME280;29285;52.128;21.060;2023-11-19T01:11:38;100910.55;;;2.70;100.00
43683;BME280;29285;52.128;21.060;2023-11-19T01:16:39;100896.52;;;2.70;100.00
43683;BME280;29285;52.128;21.060;2023-11-19T01:21:40;100893.08;;;2.69;100.00
43683;BME280;29285;52.128;21.060;2023-11-19T01:26:42;100885.66;;;2.68;100.00
43683;BME280;29285;52.128;21.060;2023-11-19T01:31:46;100875.23;;;2.68;100.00
43683;BME280;29285;52.128;21.060;2023-11-19T01:36:51;100879.48;;;2.67;100.00
43683;BME280;29285;52.128;21.060;2023-11-19T01:41:52;100886.14;;;2.59;100.00
43683;BME280;29285;52.128;21.060;2023-11-19T01:46:55;100881.43;;;2.56;100.00
43683;BME280;29285;52.128;21.060;2023-11-19T01:51:57;100871.31;;;2.56;100.00
43683;BME280;29285;52.128;21.060;2023-11-19T01:56:58;100861.81;;;2.53;100.00
43683;BME280;29285;52.128;21.060;2023-11-19T02:01:59;100859.27;;;2.54;100.00
43683;BME280;29285;52.128;21.060;2023-11-19T02:07:00;100847.89;;;2.58;100.00
43683;BME280;29285;52.128;21.060;2023-11-19T02:12:01;100843.14;;;2.59;100.00
43683;BME280;29285;52.128;21.060;2023-11-19T02:17:03;100840.42;;;2.60;100.00
43683;BME280;29285;52.128;21.060;2023-11-19T02:22:05;100825.23;;;2.63;100.00
43683;BME280;29285;52.128;21.060;2023-11-19T02:27:13;100815.85;;;2.64;100.00
43683;BME280;29285;52.128;21.060;2023-11-19T02:32:16;100813.14;;;2.66;100.00
43683;BME280;29285;52.128;21.060;2023-11-19T02:37:17;100815.87;;;2.65;100.00
43683;BME280;29285;52.128;21.060;2023-11-19T02:42:19;100801.98;;;2.64;100.00
43683;BME280;29285;52.128;21.060;2023-11-19T02:47:20;100794.42;;;2.64;100.00
43683;BME280;29285;52.128;21.060;2023-11-19T02:52:24;100795.42;;;2.63;100.00
43683;BME280;29285;52.128;21.060;2023-11-19T02:57:25;100786.46;;;2.60;100.00
43683;BME280;29285;52.128;21.060;2023-11-19T03:02:31;100771.77;;;2.55;100.00
43683;BME280;29285;52.128;21.060;2023-11-19T03:07:34;100764.94;;;2.49;100.00
43683;BME280;29285;52.128;21.060;2023-11-19T03:12:35;100753.92;;;2.47;100.00
43683;BME280;29285;52.128;21.060;2023-11-19T03:17:38;100751.31;;;2.52;100.00
43683;BME280;29285;52.128;21.060;2023-11-19T03:22:39;100742.83;;;2.56;100.00
43683;BME280;29285;52.128;21.060;2023-11-19T03:27:42;100740.01;;;2.59;100.00
43683;BME280;29285;52.128;21.060;2023-11-19T03:32:43;100730.30;;;2.62;100.00
43683;BME280;29285;52.128;21.060;2023-11-19T03:37:43;100720.41;;;2.64;100.00
43683;BME280;29285;52.128;21.060;2023-11-19T03:42:45;100719.08;;;2.66;100.00
43683;BME280;29285;52.128;21.060;2023-11-19T03:47:46;100714.44;;;2.65;100.00
43683;BME280;29285;52.128;21.060;2023-11-19T03:52:48;100708.10;;;2.65;100.00
43683;BME280;29285;52.128;21.060;2023-11-19T03:57:49;100695.77;;;2.66;100.00
43683;BME280;29285;52.128;21.060;2023-11-19T04:02:50;100690.23;;;2.63;100.00
43683;BME280;29285;52.128;21.060;2023-11-19T04:07:51;100684.94;;;2.64;100.00
43683;BME280;29285;52.128;21.060;2023-11-19T04:12:52;100681.36;;;2.64;100.00
43683;BME280;29285;52.128;21.060;2023-11-19T04:17:52;100669.72;;;2.65;100.00
43683;BME280;29285;52.128;21.060;2023-11-19T04:22:53;100660.67;;;2.67;100.00
43683;BME280;29285;52.128;21.060;2023-11-19T04:27:54;100649.89;;;2.67;100.00
43683;BME280;29285;52.128;21.060;2023-11-19T04:32:55;100640.94;;;2.65;100.00
43683;BME280;29285;52.128;21.060;2023-11-19T04:37:56;100630.08;;;2.62;100.00
43683;BME280;29285;52.128;21.060;2023-11-19T04:42:58;100626.33;;;2.63;100.00
43683;BME280;29285;52.128;21.060;2023-11-19T04:47:59;100623.98;;;2.65;100.00
43683;BME280;29285;52.128;21.060;2023-11-19T04:53:00;100619.15;;;2.63;100.00
43683;BME280;29285;52.128;21.060;2023-11-19T04:58:01;100615.70;;;2.54;100.00
43683;BME280;29285;52.128;21.060;2023-11-19T05:03:02;100603.39;;;2.40;100.00
43683;BME280;29285;52.128;21.060;2023-11-19T05:08:03;100594.02;;;2.34;100.00
43683;BME280;29285;52.128;21.060;2023-11-19T05:13:04;100588.10;;;2.21;100.00
43683;BME280;29285;52.128;21.060;2023-11-19T05:18:05;100577.25;;;2.26;100.00
43683;BME280;29285;52.128;21.060;2023-11-19T05:23:06;100572.96;;;2.34;100.00
43683;BME280;29285;52.128;21.060;2023-11-19T05:28:07;100571.15;;;2.38;100.00
43683;BME280;29285;52.128;21.060;2023-11-19T05:33:08;100568.38;;;2.36;100.00
43683;BME280;29285;52.128;21.060;2023-11-19T05:38:10;100566.76;;;2.41;100.00
43683;BME280;29285;52.128;21.060;2023-11-19T05:43:10;100564.99;;;2.38;100.00
43683;BME280;29285;52.128;21.060;2023-11-19T05:48:11;100559.42;;;2.42;100.00
43683;BME280;29285;52.128;21.060;2023-11-19T05:53:12;100566.20;;;2.46;100.00
43683;BME280;29285;52.128;21.060;2023-11-19T05:58:15;100556.21;;;2.44;100.00
43683;BME280;29285;52.128;21.060;2023-11-19T06:03:17;100553.73;;;2.48;100.00
43683;BME280;29285;52.128;21.060;2023-11-19T06:08:18;100553.23;;;2.48;100.00
43683;BME280;29285;52.128;21.060;2023-11-19T06:13:21;100553.15;;;2.53;100.00
43683;BME280;29285;52.128;21.060;2023-11-19T06:18:22;100554.91;;;2.56;100.00
43683;BME280;29285;52.128;21.060;2023-11-19T06:23:24;100548.31;;;2.60;100.00
43683;BME280;29285;52.128;21.060;2023-11-19T06:28:25;100547.33;;;2.62;100.00
43683;BME280;29285;52.128;21.060;2023-11-19T06:33:25;100540.52;;;2.64;100.00
43683;BME280;29285;52.128;21.060;2023-11-19T06:38:27;100529.52;;;2.63;100.00
43683;BME280;29285;52.128;21.060;2023-11-19T06:43:28;100523.38;;;2.64;100.00
43683;BME280;29285;52.128;21.060;2023-11-19T06:48:29;100514.98;;;2.63;100.00
43683;BME280;29285;52.128;21.060;2023-11-19T06:53:30;100504.29;;;2.60;100.00
43683;BME280;29285;52.128;21.060;2023-11-19T06:58:31;100495.13;;;2.38;100.00
43683;BME280;29285;52.128;21.060;2023-11-19T07:03:34;100497.81;;;1.94;100.00
43683;BME280;29285;52.128;21.060;2023-11-19T07:08:35;100489.60;;;1.64;100.00
43683;BME280;29285;52.128;21.060;2023-11-19T07:13:37;100482.91;;;1.70;100.00
43683;BME280;29285;52.128;21.060;2023-11-19T07:18:38;100469.94;;;1.95;100.00
43683;BME280;29285;52.128;21.060;2023-11-19T07:23:39;100459.40;;;2.15;100.00
43683;BME280;29285;52.128;21.060;2023-11-19T07:28:40;100457.45;;;2.29;100.00
43683;BME280;29285;52.128;21.060;2023-11-19T07:33:41;100461.61;;;2.40;100.00
43683;BME280;29285;52.128;21.060;2023-11-19T07:38:45;100458.63;;;2.46;100.00
43683;BME280;29285;52.128;21.060;2023-11-19T07:43:47;100455.34;;;2.54;100.00
43683;BME280;29285;52.128;21.060;2023-11-19T07:48:48;100449.65;;;2.60;100.00
43683;BME280;29285;52.128;21.060;2023-11-19T07:53:49;100445.28;;;2.65;100.00
43683;BME280;29285;52.128;21.060;2023-11-19T07:58:50;100438.89;;;2.72;100.00
43683;BME280;29285;52.128;21.060;2023-11-19T08:03:51;100426.48;;;2.78;100.00
43683;BME280;29285;52.128;21.060;2023-11-19T08:08:52;100418.70;;;2.84;100.00
43683;BME280;29285;52.128;21.060;2023-11-19T08:13:53;100413.84;;;2.90;100.00
43683;BME280;29285;52.128;21.060;2023-11-19T08:18:54;100406.23;;;2.96;100.00
43683;BME280;29285;52.128;21.060;2023-11-19T08:23:55;100398.58;;;3.01;100.00
43683;BME280;29285;52.128;21.060;2023-11-19T08:28:56;100392.32;;;3.06;100.00
43683;BME280;29285;52.128;21.060;2023-11-19T08:33:58;100383.81;;;3.10;100.00
43683;BME280;29285;52.128;21.060;2023-11-19T08:38:59;100375.80;;;3.13;100.00
43683;BME280;29285;52.128;21.060;2023-11-19T08:44:00;100365.71;;;3.14;100.00
43683;BME280;29285;52.128;21.060;2023-11-19T08:49:01;100361.43;;;3.27;100.00
43683;BME280;29285;52.128;21.060;2023-11-19T08:54:04;100357.33;;;3.40;100.00
43683;BME280;29285;52.128;21.060;2023-11-19T08:59:05;100356.42;;;3.37;100.00
43683;BME280;29285;52.128;21.060;2023-11-19T09:04:06;100348.64;;;3.33;100.00
43683;BME280;29285;52.128;21.060;2023-11-19T09:09:08;100344.84;;;3.30;100.00
43683;BME280;29285;52.128;21.060;2023-11-19T09:14:10;100332.33;;;3.29;100.00
43683;BME280;29285;52.128;21.060;2023-11-19T09:19:11;100323.29;;;3.34;100.00
43683;BME280;29285;52.128;21.060;2023-11-19T09:24:12;100318.86;;;3.37;100.00
43683;BME280;29285;52.128;21.060;2023-11-19T09:29:13;100305.05;;;3.43;100.00
43683;BME280;29285;52.128;21.060;2023-11-19T09:34:15;100292.60;;;3.50;100.00
43683;BME280;29285;52.128;21.060;2023-11-19T09:39:16;100282.43;;;3.46;100.00
43683;BME280;29285;52.128;21.060;2023-11-19T09:44:18;100274.70;;;3.44;100.00
43683;BME280;29285;52.128;21.060;2023-11-19T09:49:21;100270.11;;;3.48;100.00
43683;BME280;29285;52.128;21.060;2023-11-19T09:54:24;100266.23;;;3.53;100.00
43683;BME280;29285;52.128;21.060;2023-11-19T09:59:25;100258.02;;;3.54;100.00
43683;BME280;29285;52.128;21.060;2023-11-19T10:04:30;100251.80;;;3.51;100.00
43683;BME280;29285;52.128;21.060;2023-11-19T10:09:33;100245.73;;;3.46;100.00
43683;BME280;29285;52.128;21.060;2023-11-19T10:14:36;100238.02;;;3.45;100.00
43683;BME280;29285;52.128;21.060;2023-11-19T10:19:40;100234.92;;;3.45;100.00
43683;BME280;29285;52.128;21.060;2023-11-19T10:24:42;100224.85;;;3.49;100.00
43683;BME280;29285;52.128;21.060;2023-11-19T10:29:47;100210.83;;;3.54;100.00
43683;BME280;29285;52.128;21.060;2023-11-19T10:34:48;100204.05;;;3.63;100.00
43683;BME280;29285;52.128;21.060;2023-11-19T10:39:53;100194.86;;;3.69;100.00
43683;BME280;29285;52.128;21.060;2023-11-19T10:44:57;100191.98;;;3.73;100.00
43683;BME280;29285;52.128;21.060;2023-11-19T10:49:58;100178.92;;;3.71;100.00
43683;BME280;29285;52.128;21.060;2023-11-19T10:55:00;100175.96;;;3.68;100.00
43683;BME280;29285;52.128;21.060;2023-11-19T11:00:02;100163.60;;;3.67;100.00
43683;BME280;29285;52.128;21.060;2023-11-19T11:05:12;100153.66;;;3.68;100.00
43683;BME280;29285;52.128;21.060;2023-11-19T11:10:14;100136.50;;;3.68;100.00
43683;BME280;29285;52.128;21.060;2023-11-19T11:15:17;100128.77;;;3.66;100.00
43683;BME280;29285;52.128;21.060;2023-11-19T11:20:19;100117.58;;;3.62;100.00
43683;BME280;29285;52.128;21.060;2023-11-19T11:25:40;100103.98;;;3.58;100.00
43683;BME280;29285;52.128;21.060;2023-11-19T11:36:15;100079.06;;;3.52;100.00
43683;BME280;29285;52.128;21.060;2023-11-19T11:41:23;100073.54;;;3.48;100.00
43683;BME280;29285;52.128;21.060;2023-11-19T12:02:07;100032.44;;;3.36;100.00
43683;BME280;29285;52.128;21.060;2023-11-19T12:07:13;100019.23;;;3.37;100.00
43683;BME280;29285;52.128;21.060;2023-11-19T12:17:42;100002.83;;;3.22;100.00
43683;BME280;29285;52.128;21.060;2023-11-19T12:22:46;99990.66;;;3.23;100.00
43683;BME280;29285;52.128;21.060;2023-11-19T12:27:52;99978.19;;;3.29;100.00
43683;BME280;29285;52.128;21.060;2023-11-19T12:32:53;99966.92;;;3.36;100.00
43683;BME280;29285;52.128;21.060;2023-11-19T12:37:55;99959.56;;;3.36;100.00
43683;BME280;29285;52.128;21.060;2023-11-19T12:42:56;99964.16;;;3.33;100.00
43683;BME280;29285;52.128;21.060;2023-11-19T12:48:08;99961.75;;;3.30;100.00
43683;BME280;29285;52.128;21.060;2023-11-19T12:53:10;99950.43;;;3.32;100.00
43683;BME280;29285;52.128;21.060;2023-11-19T12:58:30;99946.88;;;3.37;100.00
43683;BME280;29285;52.128;21.060;2023-11-19T13:03:35;99948.60;;;3.39;100.00
43683;BME280;29285;52.128;21.060;2023-11-19T13:08:44;99948.78;;;3.40;100.00
43683;BME280;29285;52.128;21.060;2023-11-19T13:19:05;99931.30;;;3.42;100.00
43683;BME280;29285;52.128;21.060;2023-11-19T13:24:06;99916.35;;;3.38;100.00
43683;BME280;29285;52.128;21.060;2023-11-19T13:29:07;99907.43;;;3.37;100.00
43683;BME280;29285;52.128;21.060;2023-11-19T13:34:09;99896.10;;;3.36;100.00
43683;BME280;29285;52.128;21.060;2023-11-19T13:39:10;99884.77;;;3.31;100.00
43683;BME280;29285;52.128;21.060;2023-11-19T13:44:13;99875.81;;;3.27;100.00
43683;BME280;29285;52.128;21.060;2023-11-19T13:49:14;99871.48;;;3.20;100.00
43683;BME280;29285;52.128;21.060;2023-11-19T13:54:16;99857.60;;;3.23;100.00
43683;BME280;29285;52.128;21.060;2023-11-19T13:59:17;99842.52;;;3.24;100.00
43683;BME280;29285;52.128;21.060;2023-11-19T14:04:18;99836.69;;;3.20;100.00
43683;BME280;29285;52.128;21.060;2023-11-19T14:09:19;99836.96;;;3.11;100.00
43683;BME280;29285;52.128;21.060;2023-11-19T14:14:20;99832.55;;;3.16;100.00
43683;BME280;29285;52.128;21.060;2023-11-19T14:19:21;99822.94;;;3.17;100.00
43683;BME280;29285;52.128;21.060;2023-11-19T14:24:22;99814.72;;;3.16;100.00
43683;BME280;29285;52.128;21.060;2023-11-19T14:29:25;99809.74;;;3.17;100.00
43683;BME280;29285;52.128;21.060;2023-11-19T14:34:32;99804.60;;;3.17;100.00
43683;BME280;29285;52.128;21.060;2023-11-19T14:39:33;99800.31;;;3.18;100.00
43683;BME280;29285;52.128;21.060;2023-11-19T14:44:34;99798.27;;;3.17;100.00
43683;BME280;29285;52.128;21.060;2023-11-19T14:49:36;99790.54;;;3.17;100.00
43683;BME280;29285;52.128;21.060;2023-11-19T14:54:38;99791.91;;;3.16;100.00
43683;BME280;29285;52.128;21.060;2023-11-19T14:59:39;99784.70;;;3.15;100.00
43683;BME280;29285;52.128;21.060;2023-11-19T15:04:40;99784.35;;;3.13;100.00
43683;BME280;29285;52.128;21.060;2023-11-19T15:09:43;99780.04;;;3.07;100.00
43683;BME280;29285;52.128;21.060;2023-11-19T15:14:44;99775.73;;;3.04;100.00
43683;BME280;29285;52.128;21.060;2023-11-19T15:19:45;99773.34;;;3.06;100.00
43683;BME280;29285;52.128;21.060;2023-11-19T15:24:48;99765.94;;;3.02;100.00
43683;BME280;29285;52.128;21.060;2023-11-19T15:29:49;99766.95;;;2.98;100.00
43683;BME280;29285;52.128;21.060;2023-11-19T15:34:50;99762.74;;;3.10;100.00
43683;BME280;29285;52.128;21.060;2023-11-19T15:39:51;99761.02;;;3.09;100.00
43683;BME280;29285;52.128;21.060;2023-11-19T15:44:52;99759.80;;;3.08;100.00
43683;BME280;29285;52.128;21.060;2023-11-19T15:49:53;99755.84;;;3.03;100.00
43683;BME280;29285;52.128;21.060;2023-11-19T15:54:55;99759.60;;;3.02;100.00
43683;BME280;29285;52.128;21.060;2023-11-19T15:59:57;99765.55;;;2.94;100.00
43683;BME280;29285;52.128;21.060;2023-11-19T16:04:58;99766.56;;;2.89;100.00
43683;BME280;29285;52.128;21.060;2023-11-19T16:09:59;99755.07;;;2.89;100.00
43683;BME280;29285;52.128;21.060;2023-11-19T16:15:00;99744.29;;;2.90;100.00
43683;BME280;29285;52.128;21.060;2023-11-19T16:20:06;99745.34;;;2.95;100.00
43683;BME280;29285;52.128;21.060;2023-11-19T16:25:08;99744.66;;;2.96;100.00
43683;BME280;29285;52.128;21.060;2023-11-19T16:30:09;99745.86;;;2.97;100.00
43683;BME280;29285;52.128;21.060;2023-11-19T16:35:10;99740.89;;;2.96;100.00
43683;BME280;29285;52.128;21.060;2023-11-19T16:40:12;99738.46;;;2.90;100.00
43683;BME280;29285;52.128;21.060;2023-11-19T16:45:13;99737.93;;;2.88;100.00
43683;BME280;29285;52.128;21.060;2023-11-19T16:50:14;99732.77;;;2.84;100.00
43683;BME280;29285;52.128;21.060;2023-11-19T16:55:17;99723.67;;;2.83;100.00
43683;BME280;29285;52.128;21.060;2023-11-19T17:00:18;99717.91;;;2.92;100.00
43683;BME280;29285;52.128;21.060;2023-11-19T17:05:19;99706.91;;;2.87;100.00
43683;BME280;29285;52.128;21.060;2023-11-19T17:10:20;99702.25;;;2.81;100.00
43683;BME280;29285;52.128;21.060;2023-11-19T17:15:21;99698.10;;;2.74;100.00
43683;BME280;29285;52.128;21.060;2023-11-19T17:20:22;99692.40;;;2.66;100.00
43683;BME280;29285;52.128;21.060;2023-11-19T17:25:23;99688.42;;;2.61;100.00
43683;BME280;29285;52.128;21.060;2023-11-19T17:30:24;99678.11;;;2.56;100.00
43683;BME280;29285;52.128;21.060;2023-11-19T17:35:25;99678.78;;;2.52;100.00
43683;BME280;29285;52.128;21.060;2023-11-19T17:40:26;99678.10;;;2.51;100.00
43683;BME280;29285;52.128;21.060;2023-11-19T17:45:27;99670.56;;;2.52;100.00
43683;BME280;29285;52.128;21.060;2023-11-19T17:50:30;99667.32;;;2.53;100.00
43683;BME280;29285;52.128;21.060;2023-11-19T17:55:31;99663.20;;;2.52;100.00
43683;BME280;29285;52.128;21.060;2023-11-19T18:00:32;99659.77;;;2.51;100.00
43683;BME280;29285;52.128;21.060;2023-11-19T18:05:33;99655.64;;;2.49;100.00
43683;BME280;29285;52.128;21.060;2023-11-19T18:10:34;99648.44;;;2.45;100.00
43683;BME280;29285;52.128;21.060;2023-11-19T18:15:36;99647.55;;;2.42;100.00
43683;BME280;29285;52.128;21.060;2023-11-19T18:20:37;99640.00;;;2.39;100.00
43683;BME280;29285;52.128;21.060;2023-11-19T18:25:38;99632.45;;;2.38;100.00
43683;BME280;29285;52.128;21.060;2023-11-19T18:30:39;99631.45;;;2.39;100.00
43683;BME280;29285;52.128;21.060;2023-11-19T18:35:40;99626.80;;;2.36;100.00
43683;BME280;29285;52.128;21.060;2023-11-19T18:40:41;99619.59;;;2.31;100.00
43683;BME280;29285;52.128;21.060;2023-11-19T18:45:43;99612.73;;;2.29;100.00
43683;BME280;29285;52.128;21.060;2023-11-19T18:50:44;99606.89;;;2.27;100.00
43683;BME280;29285;52.128;21.060;2023-11-19T18:55:45;99601.05;;;2.25;100.00
43683;BME280;29285;52.128;21.060;2023-11-19T19:00:46;99594.39;;;2.24;100.00
43683;BME280;29285;52.128;21.060;2023-11-19T19:05:48;99584.96;;;2.24;100.00
43683;BME280;29285;52.128;21.060;2023-11-19T19:10:49;99572.64;;;2.26;100.00
43683;BME280;29285;52.128;21.060;2023-11-19T19:15:50;99570.59;;;2.25;100.00
43683;BME280;29285;52.128;21.060;2023-11-19T19:20:50;99566.14;;;2.25;100.00
43683;BME280;29285;52.128;21.060;2023-11-19T19:25:52;99563.56;;;2.22;100.00
43683;BME280;29285;52.128;21.060;2023-11-19T19:30:53;99564.41;;;2.23;100.00
43683;BME280;29285;52.128;21.060;2023-11-19T19:35:54;99562.04;;;2.25;100.00
43683;BME280;29285;52.128;21.060;2023-11-19T19:40:56;99561.68;;;2.25;100.00
43683;BME280;29285;52.128;21.060;2023-11-19T19:45:57;99556.56;;;2.27;100.00
43683;BME280;29285;52.128;21.060;2023-11-19T19:50:58;99551.92;;;2.27;100.00
43683;BME280;29285;52.128;21.060;2023-11-19T19:55:59;99551.27;;;2.29;100.00
43683;BME280;29285;52.128;21.060;2023-11-19T20:01:00;99548.19;;;2.29;100.00
43683;BME280;29285;52.128;21.060;2023-11-19T20:06:03;99540.29;;;2.27;100.00
43683;BME280;29285;52.128;21.060;2023-11-19T20:11:05;99524.54;;;2.24;100.00
43683;BME280;29285;52.128;21.060;2023-11-19T20:16:09;99523.17;;;2.26;100.00
43683;BME280;29285;52.128;21.060;2023-11-19T20:21:10;99518.89;;;2.24;100.00
43683;BME280;29285;52.128;21.060;2023-11-19T20:26:11;99516.67;;;2.24;100.00
43683;BME280;29285;52.128;21.060;2023-11-19T20:31:18;99508.45;;;2.25;100.00
43683;BME280;29285;52.128;21.060;2023-11-19T20:36:19;99503.14;;;2.24;100.00
43683;BME280;29285;52.128;21.060;2023-11-19T20:41:21;99499.18;;;2.21;100.00
43683;BME280;29285;52.128;21.060;2023-11-19T20:46:22;99499.53;;;2.20;100.00
43683;BME280;29285;52.128;21.060;2023-11-19T20:51:24;99500.73;;;2.21;100.00
43683;BME280;29285;52.128;21.060;2023-11-19T20:56:25;99496.63;;;2.22;100.00
43683;BME280;29285;52.128;21.060;2023-11-19T21:01:26;99497.84;;;2.22;100.00
43683;BME280;29285;52.128;21.060;2023-11-19T21:06:27;99496.45;;;2.21;100.00
43683;BME280;29285;52.128;21.060;2023-11-19T21:11:28;99482.09;;;2.24;100.00
43683;BME280;29285;52.128;21.060;2023-11-19T21:16:30;99476.11;;;2.27;100.00
43683;BME280;29285;52.128;21.060;2023-11-19T21:21:31;99478.00;;;2.29;100.00
43683;BME280;29285;52.128;21.060;2023-11-19T21:26:32;99474.92;;;2.31;100.00
43683;BME280;29285;52.128;21.060;2023-11-19T21:31:34;99472.04;;;2.33;100.00
43683;BME280;29285;52.128;21.060;2023-11-19T21:36:36;99472.21;;;2.34;100.00
43683;BME280;29285;52.128;21.060;2023-11-19T21:41:37;99471.01;;;2.34;100.00
43683;BME280;29285;52.128;21.060;2023-11-19T21:46:38;99467.23;;;2.36;100.00
43683;BME280;29285;52.128;21.060;2023-11-19T21:51:40;99459.55;;;2.41;100.00
43683;BME280;29285;52.128;21.060;2023-11-19T21:56:41;99451.19;;;2.47;100.00
43683;BME280;29285;52.128;21.060;2023-11-19T22:01:42;99445.19;;;2.46;100.00
43683;BME280;29285;52.128;21.060;2023-11-19T22:06:43;99442.10;;;2.45;100.00
43683;BME280;29285;52.128;21.060;2023-11-19T22:11:44;99439.89;;;2.48;100.00
43683;BME280;29285;52.128;21.060;2023-11-19T22:16:47;99433.05;;;2.53;100.00
43683;BME280;29285;52.128;21.060;2023-11-19T22:21:48;99425.86;;;2.56;100.00
43683;BME280;29285;52.128;21.060;2023-11-19T22:26:50;99425.19;;;2.59;100.00
43683;BME280;29285;52.128;21.060;2023-11-19T22:31:51;99421.08;;;2.61;100.00
43683;BME280;29285;52.128;21.060;2023-11-19T22:36:52;99417.48;;;2.62;100.00
43683;BME280;29285;52.128;21.060;2023-11-19T22:41:53;99409.77;;;2.66;100.00
43683;BME280;29285;52.128;21.060;2023-11-19T22:46:54;99405.50;;;2.66;100.00
43683;BME280;29285;52.128;21.060;2023-11-19T22:51:55;99408.08;;;2.68;100.00
43683;BME280;29285;52.128;21.060;2023-11-19T22:56:57;99402.42;;;2.69;100.00
43683;BME280;29285;52.128;21.060;2023-11-19T23:01:58;99394.20;;;2.71;100.00
43683;BME280;29285;52.128;21.060;2023-11-19T23:06:59;99383.75;;;2.72;100.00
43683;BME280;29285;52.128;21.060;2023-11-19T23:12:02;99386.48;;;2.69;100.00
43683;BME280;29285;52.128;21.060;2023-11-19T23:17:03;99391.80;;;2.67;100.00
43683;BME280;29285;52.128;21.060;2023-11-19T23:22:04;99392.30;;;2.67;100.00
43683;BME280;29285;52.128;21.060;2023-11-19T23:27:06;99390.60;;;2.71;100.00
43683;BME280;29285;52.128;21.060;2023-11-19T23:32:07;99387.02;;;2.74;100.00
43683;BME280;29285;52.128;21.060;2023-11-19T23:37:08;99390.95;;;2.72;100.00
43683;BME280;29285;52.128;21.060;2023-11-19T23:42:09;99385.81;;;2.70;100.00
43683;BME280;29285;52.128;21.060;2023-11-19T23:47:10;99387.52;;;2.75;100.00
43683;BME280;29285;52.128;21.060;2023-11-19T23:52:11;99382.39;;;2.80;100.00
43683;BME280;29285;52.128;21.060;2023-11-19T23:57:14;99382.39;;;2.86;100.00
